Pregled zadnjih 96 podatkov za postajo Žalec Inštitut (2079)

Čas Temperatura tal (10 cm) (°C)  Temperatura (2 m) (°C)  Sončno sevanje (W/m2)  Smer vetra (2 m) (°)  Relativna zračna vlaga (1,5 m) (%RH)  Padavine (mm)  Omočenost lista (U)  Hitrost vetra (2 m) (km/h) 
27.2.2021 5:00 0,7 3 0 37 90 0 10 4
27.2.2021 4:30 0,8 1,7 0 97 96 0 10 4
27.2.2021 4:00 0,9 1,1 0 316 95 0 10 0
27.2.2021 3:30 1 1,6 0 123 96 0 10 1
27.2.2021 3:00 1 1,7 0 180 94 0 10 0
27.2.2021 2:30 1,2 2,3 0 118 94 0 10 0
27.2.2021 2:00 1,3 2,4 0 141 93 0 10 1
27.2.2021 1:30 1,3 2,7 0 167 94 0 10 0
27.2.2021 1:00 1,4 2,6 0 351 92 0 10 1
27.2.2021 0:30 1,5 3,6 0 95 88 0 10 1
27.2.2 1,7 3,9 0 238 88 0 10 1
26.2.2021 23:30 1,8 3,6 0 297 90 0 10 0
26.2.2021 23:00 1,9 4,3 0 287 88 0 10 0
26.2.2021 22:30 2 4,9 0 124 84 0 10 0
26.2.2021 22:00 2,1 5,6 0 33 82 0 10 0
26.2.2021 21:30 2,2 6,1 0 188 79 0 9 0
26.2.2021 21:00 2,4 6,6 0 272 77 0 6 1
26.2.2021 20:30 2,5 7,6 0 269 72 0 0 2
26.2.2021 20:00 2,6 8,8 0 312 69 0 0 2
26.2.2021 19:30 2,8 9,5 0 319 68 0 0 2
26.2.2021 19:00 2,9 9,8 0 268 68 0 0 0
26.2.2021 18:30 3 12,1 0 217 56 0 0 2
26.2.2021 18:00 3,1 13,9 2 305 53 0 0 1
26.2.2021 17:30 3,2 16,7 34 190 46 0 0 0
26.2.2021 17:00 3,2 19,8 105 199 32 0 0 2
26.2.2021 16:30 3,2 20,8 186 179 27 0 0 3
26.2.2021 16:00 3,2 21,2 277 166 23 0 0 3
26.2.2021 15:30 3,2 21,4 366 182 24 0 0 3
26.2.2021 15:00 3 21 439 217 26 0 0 3
26.2.2021 14:30 2,9 20,4 499 237 29 0 0 5
26.2.2021 14:00 2,7 19,6 556 233 32 0 0 5
26.2.2021 13:30 2,5 18,5 601 264 34 0 0 6
26.2.2021 13:00 2,2 17,6 630 225 35 0 0 8
26.2.2021 12:30 1,9 17 641 264 39 0 0 10
26.2.2021 12:00 1,6 16 638 250 43 0 0 11
26.2.2021 11:30 1,3 15 623 265 46 0 0 12
26.2.2021 11:00 1,1 13,8 588 266 50 0 0 11
26.2.2021 10:30 0,8 12,7 542 266 53 0 0 13
26.2.2021 10:00 0,7 11,4 486 267 57 0 0 15
26.2.2021 9:30 0,5 10,1 414 268 61 0 0 15
26.2.2021 9:00 0,5 8,6 331 267 66 0 0 15
26.2.2021 8:30 0,5 6,8 238 255 75 0 0 13
26.2.2021 8:00 0,5 5,2 144 275 82 0 0 11
26.2.2021 7:30 0,6 4,8 40 281 81 0 0 10
26.2.2021 7:00 0,7 5,1 5 278 79 0 0 9
26.2.2021 6:30 0,7 4,1 0 272 85 0 1 9
26.2.2021 6:00 0,8 4,2 0 278 85 0 1 9
26.2.2021 5:30 0,8 4,2 0 276 86 0 1 9
26.2.2021 5:00 0,9 4,3 0 278 86 0 1 9
26.2.2021 4:30 0,9 4,6 0 273 85 0 1 7
26.2.2021 4:00 1 5,4 0 277 82 0 0 7
26.2.2021 3:30 1,1 6,3 0 280 78 0 0 9
26.2.2021 3:00 1,1 7,1 0 293 75 0 0 9
26.2.2021 2:30 1,2 6,8 0 282 77 0 0 8
26.2.2021 2:00 1,2 6,4 0 275 80 0 9 9
26.2.2021 1:30 1,3 4,7 0 292 88 0 10 5
26.2.2021 1:00 1,4 5,9 0 299 84 0 10 5
26.2.2021 0:30 1,5 4,6 0 317 91 0 10 2
26.2.2 1,6 3,9 0 292 93 0 10 0
25.2.2021 23:30 1,7 5,3 0 83 87 0 10 2
25.2.2021 23:00 1,8 5,4 0 297 90 0 10 1
25.2.2021 22:30 2 5,1 0 235 91 0 10 0
25.2.2021 22:00 2,1 5,5 0 172 89 0 10 1
25.2.2021 21:30 2,2 6,1 0 206 89 0 10 0
25.2.2021 21:00 2,4 6,6 0 358 86 0 10 0
25.2.2021 20:30 2,5 7,9 0 275 81 0 10 2
25.2.2021 20:00 2,6 8,4 0 246 80 0 10 0
25.2.2021 19:30 2,8 9,2 0 282 77 0 1 0
25.2.2021 19:00 2,9 10,6 0 253 71 0 0 2
25.2.2021 18:30 3 12,7 0 282 64 0 0 2
25.2.2021 18:00 3 14,4 2 283 59 0 0 3
25.2.2021 17:30 3,1 16,5 31 290 53 0 0 1
25.2.2021 17:00 3,1 18,9 90 169 41 0 0 2
25.2.2021 16:30 3,1 19,6 162 160 38 0 0 3
25.2.2021 16:00 3,1 19,9 245 112 36 0 0 3
25.2.2021 15:30 3 20,1 332 116 35 0 0 3
25.2.2021 15:00 2,9 19,8 398 93 35 0 0 3
25.2.2021 14:30 2,8 19,6 462 64 35 0 0 3
25.2.2021 14:00 2,6 19 514 122 36 0 0 3
25.2.2021 13:30 2,3 18,2 553 67 38 0 0 3
25.2.2021 13:00 2,1 17,4 575 233 41 0 0 3
25.2.2021 12:30 1,7 17 582 282 42 0 0 2
25.2.2021 12:00 1,4 15,8 570 170 45 0 0 4
25.2.2021 11:30 1,1 14,9 562 224 50 0 0 6
25.2.2021 11:00 0,9 13,6 526 270 54 0 0 9
25.2.2021 10:30 0,6 12,3 482 266 59 0 0 10
25.2.2021 10:00 0,5 10,9 425 292 64 0 0 9
25.2.2021 9:30 0,3 9,6 356 278 67 0 2 8
25.2.2021 9:00 0,3 6,8 275 274 81 0 10 3
25.2.2021 8:30 0,3 3,9 193 138 91 0 10 2
25.2.2021 8:00 0,3 1,9 112 197 98 0 10 2
25.2.2021 7:30 0,4 1 40 237 98 0 10 0
25.2.2021 7:00 0,5 0,8 5 170 98 0 10 1
25.2.2021 6:30 0,5 0,7 0 166 96 0 10 0
25.2.2021 6:00 0,6 2,2 0 176 90 0 10 1
25.2.2021 5:30 0,6 3,5 0 316 91 0 10 4